Lady Dee — PCPI — position and weather

sailwx.info

Track history (hours):
 
Tides and Currents Weather Stations Pressure Air Temp Water Temp Dewpoint Dewpoint Depression Visibility Wind Speed Wind Dir Waves Ship Positions

Lady Dee

Last reported at 2018-Jul-19 04:46 UTC. Time now 2018-Jul-20 10:42 UTC.
Position N 37°05' E 024°57'.

Length 47 m; draft 3.1 m.

Type: Pleasure craft. MMSI: 244814000.

Date/timePositionNaut miles runAvg speedWind from/ knotsBaromVisibWave heightAir tempDewpointWater temp
2018-Jul-19 04:46N 37°05' E 024°57'414.6
2018-Jul-19 04:31N 37°09' E 024°58'714.5
2018-Jul-19 04:01N 37°16' E 024°59'714.2
2018-Jul-19 03:31N 37°23' E 024°59'4 7.0
2018-Jul-19 03:00N 37°27' E 024°57'0 0.0
2018-Jul-19 02:30N 37°27' E 024°57'0 0.0
2018-Jul-19 02:00N 37°27' E 024°57'0 0.0
2018-Jul-19 01:30N 37°27' E 024°57'0 0.0
2018-Jul-19 01:00N 37°27' E 024°57'0 0.0
2018-Jul-19 00:30N 37°27' E 024°57'0 0.0
2018-Jul-19 00:00N 37°27' E 024°57'0 0.0
2018-Jul-18 23:30N 37°27' E 024°57'0 0.0
2018-Jul-18 23:00N 37°27' E 024°57'0 0.0
2018-Jul-18 22:30N 37°27' E 024°57'0 0.0
2018-Jul-18 22:00N 37°27' E 024°57'0 0.0
2018-Jul-18 21:30N 37°27' E 024°57'0 0.0
2018-Jul-18 21:00N 37°27' E 024°57'0 0.0
2018-Jul-18 20:30N 37°27' E 024°57'0 0.0
2018-Jul-18 20:00N 37°27' E 024°57'0 0.0
2018-Jul-18 19:31N 37°27' E 024°57'0 0.0
2018-Jul-18 19:01N 37°27' E 024°57'0 0.0
2018-Jul-18 18:30N 37°27' E 024°57'0 0.0
2018-Jul-18 18:00N 37°27' E 024°57'0 0.0
2018-Jul-18 17:30N 37°27' E 024°57'0 0.0
2018-Jul-18 17:00N 37°27' E 024°57'0 0.0
2018-Jul-18 16:30N 37°27' E 024°57'0 0.0
2018-Jul-18 16:00N 37°27' E 024°57'0 0.0
2018-Jul-18 15:30N 37°27' E 024°57'0 0.0
2018-Jul-18 15:00N 37°27' E 024°57'0 0.0
2018-Jul-18 14:28N 37°27' E 024°57'0 0.0
2018-Jul-18 13:30N 37°27' E 024°57'0 0.0
2018-Jul-18 13:00N 37°27' E 024°57'0 0.0
2018-Jul-18 12:30N 37°27' E 024°57'0 0.0
2018-Jul-18 12:00N 37°27' E 024°57'0 0.0
2018-Jul-18 11:30N 37°27' E 024°57'0 0.0
2018-Jul-18 10:30N 37°27' E 024°57'1 0.2
2018-Jul-18 07:41N 37°26' E 024°57'713.6
2018-Jul-18 07:12N 37°27' E 025°06'313.2
2018-Jul-18 07:00N 37°27' E 025°09'510.3
2018-Jul-18 06:30N 37°25' E 025°15'1 1.3
2018-Jul-18 06:00N 37°24' E 025°14'0 0.0
2018-Jul-18 05:30N 37°24' E 025°14'0 0.0
2018-Jul-18 05:01N 37°24' E 025°14'0 0.1
2018-Jul-18 04:31N 37°24' E 025°14'0 0.0
2018-Jul-18 04:00N 37°24' E 025°14'0 0.0
2018-Jul-18 03:30N 37°24' E 025°14'0 0.0
2018-Jul-18 03:00N 37°24' E 025°14'0 0.0
2018-Jul-18 02:30N 37°24' E 025°14'0 0.0
2018-Jul-18 02:00N 37°24' E 025°14'0 0.0
2018-Jul-18 01:31N 37°24' E 025°14'0 0.0
2018-Jul-18 01:00N 37°24' E 025°14'0 0.0
2018-Jul-18 00:30N 37°24' E 025°14'0 0.0
2018-Jul-18 00:00N 37°24' E 025°14'0 0.0
2018-Jul-17 23:30N 37°24' E 025°14'0 0.0
2018-Jul-17 23:00N 37°24' E 025°14'0 0.0
2018-Jul-17 22:30N 37°24' E 025°14'0 0.0
2018-Jul-17 22:01N 37°24' E 025°14'0 0.0
2018-Jul-17 21:30N 37°24' E 025°14'0 0.0
2018-Jul-17 21:00N 37°24' E 025°14'0 0.0
2018-Jul-17 20:30N 37°24' E 025°14'0 0.0
2018-Jul-17 20:00N 37°24' E 025°14'0 0.0
2018-Jul-17 19:31N 37°24' E 025°14'0 0.0
2018-Jul-17 19:01N 37°24' E 025°14'0 0.0
2018-Jul-17 18:30N 37°24' E 025°14'0 0.0
2018-Jul-17 18:00N 37°24' E 025°14'0 0.0
2018-Jul-17 17:31N 37°24' E 025°14'0 0.0
2018-Jul-17 17:00N 37°24' E 025°14'0 0.0
2018-Jul-17 16:30N 37°24' E 025°14'0 0.0
2018-Jul-17 16:01N 37°24' E 025°14'0 0.0
2018-Jul-17 15:30N 37°24' E 025°14'0 0.0
2018-Jul-17 15:00N 37°24' E 025°14'0 0.2
2018-Jul-17 14:30N 37°24' E 025°14'4 7.8
2018-Jul-17 14:00N 37°27' E 025°17'2 3.4
2018-Jul-17 13:27N 37°27' E 025°20'0 0.0
2018-Jul-17 13:00N 37°27' E 025°20'0 0.0
2018-Jul-17 12:30N 37°27' E 025°20'0 0.0
2018-Jul-17 12:00N 37°27' E 025°20'0 0.0
2018-Jul-17 11:30N 37°27' E 025°20'0 0.0
2018-Jul-17 11:01N 37°27' E 025°20'0 0.0
2018-Jul-17 10:30N 37°27' E 025°20'0 0.0
2018-Jul-17 10:00N 37°27' E 025°20'0 0.0
2018-Jul-17 09:30N 37°27' E 025°20'0 0.0
2018-Jul-17 09:00N 37°27' E 025°20'0 0.0
2018-Jul-17 08:30N 37°27' E 025°20'0 0.0
2018-Jul-17 08:00N 37°27' E 025°20'0 0.0
2018-Jul-17 07:30N 37°27' E 025°20'0 0.0
2018-Jul-17 06:51N 37°27' E 025°20'0 0.0
2018-Jul-17 06:25N 37°27' E 025°20'0 0.0
2018-Jul-17 05:56N 37°27' E 025°20'0 0.0
2018-Jul-17 05:29N 37°27' E 025°20'0 0.0
2018-Jul-17 05:00N 37°27' E 025°20'0 0.0
2018-Jul-17 04:23N 37°27' E 025°20'0 0.0
2018-Jul-17 04:00N 37°27' E 025°20'0 0.0
2018-Jul-17 03:29N 37°27' E 025°20'0 0.0
2018-Jul-17 03:00N 37°27' E 025°20'0 0.0
2018-Jul-17 02:27N 37°27' E 025°20'0 0.0
2018-Jul-17 01:54N 37°27' E 025°20'0 0.0
2018-Jul-17 01:28N 37°27' E 025°20'0 0.0
2018-Jul-17 01:00N 37°27' E 025°20'0 0.0
2018-Jul-17 00:30N 37°27' E 025°20'0 0.0
2018-Jul-16 23:31N 37°27' E 025°20'0 0.0
2018-Jul-16 23:00N 37°27' E 025°20'0 0.0
2018-Jul-16 21:51N 37°27' E 025°20'0 0.0
2018-Jul-16 16:53N 37°27' E 025°20'0 0.0
2018-Jul-16 16:27N 37°27' E 025°20'0 0.0
2018-Jul-16 15:54N 37°27' E 025°20'0 0.0
2018-Jul-16 15:30N 37°27' E 025°20'0 0.0
2018-Jul-16 14:59N 37°27' E 025°20'0 0.0
2018-Jul-16 14:30N 37°27' E 025°20'0 0.0
2018-Jul-16 14:01N 37°27' E 025°20'0 0.0
2018-Jul-16 13:28N 37°27' E 025°20'0 0.0
2018-Jul-16 13:00N 37°27' E 025°20'0 0.0
2018-Jul-16 12:30N 37°27' E 025°20'0 0.0
2018-Jul-16 11:49N 37°27' E 025°20'0 0.0
2018-Jul-16 11:30N 37°27' E 025°20'0 0.0
2018-Jul-16 11:00N 37°27' E 025°20'0 0.0
2018-Jul-16 10:30N 37°27' E 025°20'0 0.4
2018-Jul-16 10:01N 37°27' E 025°19'5 9.6
2018-Jul-16 09:30N 37°28' E 025°13'714.2
2018-Jul-16 09:00N 37°30' E 025°05'1014.3
2018-Jul-16 08:18N 37°31' E 024°52'414.3
2018-Jul-16 08:00N 37°32' E 024°47'3513.8
2018-Jul-16 05:30N 37°36' E 024°03'814.2
2018-Jul-16 04:55N 37°39' E 023°54'613.8
2018-Jul-16 04:30N 37°42' E 023°48'713.9
2018-Jul-16 04:01N 37°45' E 023°40'714.2
2018-Jul-16 03:31N 37°47' E 023°31'714.2
2018-Jul-16 03:01N 37°50' E 023°23'714.3
2018-Jul-16 02:30N 37°52' E 023°14'714.4
2018-Jul-16 02:01N 37°54' E 023°06'7 9.0
2018-Jul-16 01:17N 37°57' E 022°58'1 4.2
2018-Jul-16 01:01N 37°58' E 022°57'0 0.5
2018-Jul-16 00:30N 37°58' E 022°57'3 6.7
2018-Jul-16 00:00N 37°60' E 022°54'714.2
2018-Jul-15 23:29N 38°03' E 022°45'  
2018-Jul-09 16:38N 38°14' E 022°36'214.0
2018-Jul-09 16:30N 38°12' E 022°37'714.3
2018-Jul-09 16:00N 38°07' E 022°43'714.2
2018-Jul-09 15:30N 38°02' E 022°50'714.3
2018-Jul-09 15:01N 37°58' E 022°57'4 8.0
2018-Jul-09 14:30N 37°55' E 023°01'0 0.4
2018-Jul-09 14:00N 37°55' E 023°01'1 2.3
2018-Jul-09 13:30N 37°55' E 023°02'713.6
2018-Jul-09 13:00N 37°54' E 023°11'713.8
2018-Jul-09 12:31N 37°53' E 023°19'713.8
2018-Jul-09 12:01N 37°52' E 023°28'713.8
2018-Jul-09 11:30N 37°55' E 023°36'4 7.4
2018-Jul-09 11:01N 37°56' E 023°41'0 0.0
2018-Jul-09 10:31N 37°56' E 023°41'0 0.0
2018-Jul-09 10:01N 37°56' E 023°41'0 0.0
2018-Jul-09 09:31N 37°56' E 023°41'0 0.0
2018-Jul-09 09:01N 37°56' E 023°41'0 0.0
2018-Jul-09 08:31N 37°56' E 023°41'0 0.0
2018-Jul-09 08:00N 37°56' E 023°41'0 0.0
2018-Jul-09 07:31N 37°56' E 023°41'0 0.0
2018-Jul-09 07:01N 37°56' E 023°41'0 0.0
2018-Jul-09 06:30N 37°56' E 023°41'0 0.0
2018-Jul-09 06:00N 37°56' E 023°41'0 0.0
2018-Jul-09 05:30N 37°56' E 023°41'0 0.0
2018-Jul-09 05:00N 37°56' E 023°41'  
Track history (hours):
 
Tides and Currents Weather Stations Pressure Air Temp Water Temp Dewpoint Dewpoint Depression Visibility Wind Speed Wind Dir Waves Ship Positions

Lady Dee

Last reported at 2018-Jul-19 04:46 UTC. Time now 2018-Jul-20 10:42 UTC.
Position N 37°05' E 024°57'.

Length 47 m; draft 3.1 m.

Type: Pleasure craft. MMSI: 244814000.

Date/timePositionNaut miles runAvg speedWind from/ knotsBaromVisibWave heightAir tempDewpointWater temp
2018-Jul-19 04:46N 37°05' E 024°57'414.6
2018-Jul-19 04:31N 37°09' E 024°58'714.5
2018-Jul-19 04:01N 37°16' E 024°59'714.2
2018-Jul-19 03:31N 37°23' E 024°59'4 7.0
2018-Jul-19 03:00N 37°27' E 024°57'0 0.0
2018-Jul-19 02:30N 37°27' E 024°57'0 0.0
2018-Jul-19 02:00N 37°27' E 024°57'0 0.0
2018-Jul-19 01:30N 37°27' E 024°57'0 0.0
2018-Jul-19 01:00N 37°27' E 024°57'0 0.0
2018-Jul-19 00:30N 37°27' E 024°57'0 0.0
2018-Jul-19 00:00N 37°27' E 024°57'0 0.0
2018-Jul-18 23:30N 37°27' E 024°57'0 0.0
2018-Jul-18 23:00N 37°27' E 024°57'0 0.0
2018-Jul-18 22:30N 37°27' E 024°57'0 0.0
2018-Jul-18 22:00N 37°27' E 024°57'0 0.0
2018-Jul-18 21:30N 37°27' E 024°57'0 0.0
2018-Jul-18 21:00N 37°27' E 024°57'0 0.0
2018-Jul-18 20:30N 37°27' E 024°57'0 0.0
2018-Jul-18 20:00N 37°27' E 024°57'0 0.0
2018-Jul-18 19:31N 37°27' E 024°57'0 0.0
2018-Jul-18 19:01N 37°27' E 024°57'0 0.0
2018-Jul-18 18:30N 37°27' E 024°57'0 0.0
2018-Jul-18 18:00N 37°27' E 024°57'0 0.0
2018-Jul-18 17:30N 37°27' E 024°57'0 0.0
2018-Jul-18 17:00N 37°27' E 024°57'0 0.0
2018-Jul-18 16:30N 37°27' E 024°57'0 0.0
2018-Jul-18 16:00N 37°27' E 024°57'0 0.0
2018-Jul-18 15:30N 37°27' E 024°57'0 0.0
2018-Jul-18 15:00N 37°27' E 024°57'0 0.0
2018-Jul-18 14:28N 37°27' E 024°57'0 0.0
2018-Jul-18 13:30N 37°27' E 024°57'0 0.0
2018-Jul-18 13:00N 37°27' E 024°57'0 0.0
2018-Jul-18 12:30N 37°27' E 024°57'0 0.0
2018-Jul-18 12:00N 37°27' E 024°57'0 0.0
2018-Jul-18 11:30N 37°27' E 024°57'0 0.0
2018-Jul-18 10:30N 37°27' E 024°57'1 0.2
2018-Jul-18 07:41N 37°26' E 024°57'713.6
2018-Jul-18 07:12N 37°27' E 025°06'313.2
2018-Jul-18 07:00N 37°27' E 025°09'510.3
2018-Jul-18 06:30N 37°25' E 025°15'1 1.3
2018-Jul-18 06:00N 37°24' E 025°14'0 0.0
2018-Jul-18 05:30N 37°24' E 025°14'0 0.0
2018-Jul-18 05:01N 37°24' E 025°14'0 0.1
2018-Jul-18 04:31N 37°24' E 025°14'0 0.0
2018-Jul-18 04:00N 37°24' E 025°14'0 0.0
2018-Jul-18 03:30N 37°24' E 025°14'0 0.0
2018-Jul-18 03:00N 37°24' E 025°14'0 0.0
2018-Jul-18 02:30N 37°24' E 025°14'0 0.0
2018-Jul-18 02:00N 37°24' E 025°14'0 0.0
2018-Jul-18 01:31N 37°24' E 025°14'0 0.0
2018-Jul-18 01:00N 37°24' E 025°14'0 0.0
2018-Jul-18 00:30N 37°24' E 025°14'0 0.0
2018-Jul-18 00:00N 37°24' E 025°14'0 0.0
2018-Jul-17 23:30N 37°24' E 025°14'0 0.0
2018-Jul-17 23:00N 37°24' E 025°14'0 0.0
2018-Jul-17 22:30N 37°24' E 025°14'0 0.0
2018-Jul-17 22:01N 37°24' E 025°14'0 0.0
2018-Jul-17 21:30N 37°24' E 025°14'0 0.0
2018-Jul-17 21:00N 37°24' E 025°14'0 0.0
2018-Jul-17 20:30N 37°24' E 025°14'0 0.0
2018-Jul-17 20:00N 37°24' E 025°14'0 0.0
2018-Jul-17 19:31N 37°24' E 025°14'0 0.0
2018-Jul-17 19:01N 37°24' E 025°14'0 0.0
2018-Jul-17 18:30N 37°24' E 025°14'0 0.0
2018-Jul-17 18:00N 37°24' E 025°14'0 0.0
2018-Jul-17 17:31N 37°24' E 025°14'0 0.0
2018-Jul-17 17:00N 37°24' E 025°14'0 0.0
2018-Jul-17 16:30N 37°24' E 025°14'0 0.0
2018-Jul-17 16:01N 37°24' E 025°14'0 0.0
2018-Jul-17 15:30N 37°24' E 025°14'0 0.0
2018-Jul-17 15:00N 37°24' E 025°14'0 0.2
2018-Jul-17 14:30N 37°24' E 025°14'4 7.8
2018-Jul-17 14:00N 37°27' E 025°17'2 3.4
2018-Jul-17 13:27N 37°27' E 025°20'0 0.0
2018-Jul-17 13:00N 37°27' E 025°20'0 0.0
2018-Jul-17 12:30N 37°27' E 025°20'0 0.0
2018-Jul-17 12:00N 37°27' E 025°20'0 0.0
2018-Jul-17 11:30N 37°27' E 025°20'0 0.0
2018-Jul-17 11:01N 37°27' E 025°20'0 0.0
2018-Jul-17 10:30N 37°27' E 025°20'0 0.0
2018-Jul-17 10:00N 37°27' E 025°20'0 0.0
2018-Jul-17 09:30N 37°27' E 025°20'0 0.0
2018-Jul-17 09:00N 37°27' E 025°20'0 0.0
2018-Jul-17 08:30N 37°27' E 025°20'0 0.0
2018-Jul-17 08:00N 37°27' E 025°20'0 0.0
2018-Jul-17 07:30N 37°27' E 025°20'0 0.0
2018-Jul-17 06:51N 37°27' E 025°20'0 0.0
2018-Jul-17 06:25N 37°27' E 025°20'0 0.0
2018-Jul-17 05:56N 37°27' E 025°20'0 0.0
2018-Jul-17 05:29N 37°27' E 025°20'0 0.0
2018-Jul-17 05:00N 37°27' E 025°20'0 0.0
2018-Jul-17 04:23N 37°27' E 025°20'0 0.0
2018-Jul-17 04:00N 37°27' E 025°20'0 0.0
2018-Jul-17 03:29N 37°27' E 025°20'0 0.0
2018-Jul-17 03:00N 37°27' E 025°20'0 0.0
2018-Jul-17 02:27N 37°27' E 025°20'0 0.0
2018-Jul-17 01:54N 37°27' E 025°20'0 0.0
2018-Jul-17 01:28N 37°27' E 025°20'0 0.0
2018-Jul-17 01:00N 37°27' E 025°20'0 0.0
2018-Jul-17 00:30N 37°27' E 025°20'0 0.0
2018-Jul-16 23:31N 37°27' E 025°20'0 0.0
2018-Jul-16 23:00N 37°27' E 025°20'0 0.0
2018-Jul-16 21:51N 37°27' E 025°20'0 0.0
2018-Jul-16 16:53N 37°27' E 025°20'0 0.0
2018-Jul-16 16:27N 37°27' E 025°20'0 0.0
2018-Jul-16 15:54N 37°27' E 025°20'0 0.0
2018-Jul-16 15:30N 37°27' E 025°20'0 0.0
2018-Jul-16 14:59N 37°27' E 025°20'0 0.0
2018-Jul-16 14:30N 37°27' E 025°20'0 0.0
2018-Jul-16 14:01N 37°27' E 025°20'0 0.0
2018-Jul-16 13:28N 37°27' E 025°20'0 0.0
2018-Jul-16 13:00N 37°27' E 025°20'0 0.0
2018-Jul-16 12:30N 37°27' E 025°20'0 0.0
2018-Jul-16 11:49N 37°27' E 025°20'0 0.0
2018-Jul-16 11:30N 37°27' E 025°20'0 0.0
2018-Jul-16 11:00N 37°27' E 025°20'0 0.0
2018-Jul-16 10:30N 37°27' E 025°20'0 0.4
2018-Jul-16 10:01N 37°27' E 025°19'5 9.6
2018-Jul-16 09:30N 37°28' E 025°13'714.2
2018-Jul-16 09:00N 37°30' E 025°05'1014.3
2018-Jul-16 08:18N 37°31' E 024°52'414.3
2018-Jul-16 08:00N 37°32' E 024°47'3513.8
2018-Jul-16 05:30N 37°36' E 024°03'814.2
2018-Jul-16 04:55N 37°39' E 023°54'613.8
2018-Jul-16 04:30N 37°42' E 023°48'713.9
2018-Jul-16 04:01N 37°45' E 023°40'714.2
2018-Jul-16 03:31N 37°47' E 023°31'714.2
2018-Jul-16 03:01N 37°50' E 023°23'714.3
2018-Jul-16 02:30N 37°52' E 023°14'714.4
2018-Jul-16 02:01N 37°54' E 023°06'7 9.0
2018-Jul-16 01:17N 37°57' E 022°58'1 4.2
2018-Jul-16 01:01N 37°58' E 022°57'0 0.5
2018-Jul-16 00:30N 37°58' E 022°57'3 6.7
2018-Jul-16 00:00N 37°60' E 022°54'714.2
2018-Jul-15 23:29N 38°03' E 022°45'  
2018-Jul-09 16:38N 38°14' E 022°36'214.0
2018-Jul-09 16:30N 38°12' E 022°37'714.3
2018-Jul-09 16:00N 38°07' E 022°43'714.2
2018-Jul-09 15:30N 38°02' E 022°50'714.3
2018-Jul-09 15:01N 37°58' E 022°57'4 8.0
2018-Jul-09 14:30N 37°55' E 023°01'0 0.4
2018-Jul-09 14:00N 37°55' E 023°01'1 2.3
2018-Jul-09 13:30N 37°55' E 023°02'713.6
2018-Jul-09 13:00N 37°54' E 023°11'713.8
2018-Jul-09 12:31N 37°53' E 023°19'713.8
2018-Jul-09 12:01N 37°52' E 023°28'713.8
2018-Jul-09 11:30N 37°55' E 023°36'4 7.4
2018-Jul-09 11:01N 37°56' E 023°41'0 0.0
2018-Jul-09 10:31N 37°56' E 023°41'0 0.0
2018-Jul-09 10:01N 37°56' E 023°41'0 0.0
2018-Jul-09 09:31N 37°56' E 023°41'0 0.0
2018-Jul-09 09:01N 37°56' E 023°41'0 0.0
2018-Jul-09 08:31N 37°56' E 023°41'0 0.0
2018-Jul-09 08:00N 37°56' E 023°41'0 0.0
2018-Jul-09 07:31N 37°56' E 023°41'0 0.0
2018-Jul-09 07:01N 37°56' E 023°41'0 0.0
2018-Jul-09 06:30N 37°56' E 023°41'0 0.0
2018-Jul-09 06:00N 37°56' E 023°41'0 0.0
2018-Jul-09 05:30N 37°56' E 023°41'0 0.0
2018-Jul-09 05:00N 37°56' E 023°41'  

Dump ship's entire track history